GORO2: Illinois River, Gore, OK

Data processed at Sun Jul 15 2018 23:34


All information presented herein is the property of the government of the United States of America and may be revised or deleted at any time without prior notice.
Dissemination of this information without the expressed written consent of the Public Affairs Office, Tulsa District U.S. Army Corps of Engineers is strictly prohibited.
These data are gathered electronically and, as presented, have not undergone any form of quality control. These data are not guaranteed to be valid or correct.
Go to home page.
Go to station list.

Upstream stations:

Downstream station:
Previous Day
Next Day
Current Day
    
SHEF ID:       GORO2     Illinois River near Gore, OK
STATION TYPE:  

               PRECIP PRECIP(A)     STAGE  STAGE(2)  RIV-FLOW  WTR-TEMP   DIS-OXY   VOLTAGE  BAT-LOAD
                   in        in        ft        ft       cfs         F      mg/l      volt      volt
              Ccp-Rev   Ccp-Rev   Ccp-Rev   Ccp-Rev   Ccp-Rev   Ccp-Rev   Ccp-Rev   Ccp-Rev   Ccp-Rev
(US/Central)
07/13 00:00      0.00      ----      7.26      9.73       264     60.06      8.09      ----     12.77
07/13 01:00      0.00      ----      7.23      9.72       254     59.68      8.35      ----     12.77
07/13 02:00      0.00      ----      7.21      9.72       247     59.25      8.56      ----     12.77
07/13 03:00      0.00      ----      7.20      9.72       244     58.87      8.68      ----     12.77
07/13 04:00      0.00      ----      7.19      9.72       241     58.50      8.77      ----     12.71
07/13 05:00      0.00      ----      7.18      9.72       238     58.26      8.83      ----     12.71
07/13 06:00      0.00      ----      7.17      9.72       235     58.06      8.88      ----     12.71
07/13 07:00      0.00      ----      7.17      9.72       235     57.92      8.87      ----     12.71
07/13 08:00      0.00      ----      7.16      9.72       232     58.06      9.27      ----     12.71
07/13 09:00      0.00      ----      7.16      9.72       232     58.66      9.93      ----     12.77
07/13 10:00      0.00      ----      7.15      9.72       228     59.50     10.39      ----      ----
07/13 11:00      0.00      ----      7.15      9.72       228     60.85     11.04      ----      ----
07/13 12:00      0.00      ----      7.15      9.72       228     62.17     11.62      ----      ----
07/13 13:00      0.00      ----      7.15      9.72       228     63.61     12.20      ----      ----
07/13 14:00      0.00      ----      7.14      9.72       225     65.12     12.54      ----      ----
07/13 15:00      0.00      ----     10.12      9.72      2086     63.18     11.95      ----      ----
07/13 16:00      0.00      ----     11.59      9.73      3928     60.19      7.21      ----      ----
07/13 17:00      0.00      ----     11.76      9.73      4178     59.61      6.77      ----      ----
07/13 18:00      0.00      ----     11.79      9.73      4223     59.32      6.73      ----      ----
07/13 19:00      0.00      ----      9.94      9.73      1908     59.67      6.90      ----      ----
07/13 20:00      0.00      ----      8.04      9.72       581     59.92      7.41      ----     12.83
07/13 21:00      0.00      ----      7.49      9.72       347     60.12      7.63      ----     12.83
07/13 22:00      0.00      ----      7.36      9.72       300     60.15      7.73      ----     12.77
07/13 23:00      0.00      ----      7.30      9.72       278     60.08      7.85      ----     12.77